createdAt,value
2018-11-01T00:01:16.552Z,6.66
2018-11-01T00:03:51.081Z,6.61
2018-11-01T00:06:25.631Z,6.69
2018-11-01T00:09:00.597Z,6.70
2018-11-01T00:11:35.014Z,6.81
2018-11-01T00:14:10.481Z,6.89
2018-11-01T00:16:52.893Z,7.01
2018-11-01T00:19:27.650Z,7.09
2018-11-01T00:22:02.176Z,7.15
2018-11-01T00:24:36.740Z,7.26
2018-11-01T00:27:11.143Z,7.36
2018-11-01T00:29:45.495Z,7.35
2018-11-01T00:32:24.310Z,7.43
2018-11-01T00:34:59.006Z,7.40
2018-11-01T00:37:39.821Z,7.40
2018-11-01T00:40:28.894Z,7.43
2018-11-01T00:43:03.369Z,7.41
2018-11-01T00:45:38.328Z,7.53
2018-11-01T00:48:13.199Z,7.59
2018-11-01T00:50:48.530Z,7.65
2018-11-01T00:53:23.140Z,7.67
2018-11-01T00:55:57.675Z,7.65
2018-11-01T00:58:32.652Z,7.63
2018-11-01T01:01:07.409Z,7.59
2018-11-01T01:03:42.018Z,7.48
2018-11-01T01:06:17.871Z,7.40
2018-11-01T01:08:52.884Z,7.33
2018-11-01T01:11:27.151Z,7.30
2018-11-01T01:14:01.869Z,7.30
2018-11-01T01:16:36.568Z,7.27
2018-11-01T01:19:11.535Z,7.21
2018-11-01T01:21:46.316Z,7.21
2018-11-01T01:24:20.708Z,7.15
2018-11-01T01:26:55.490Z,7.12
2018-11-01T01:29:30.568Z,7.09
2018-11-01T01:32:05.224Z,7.08
2018-11-01T01:34:40.175Z,7.01
2018-11-01T01:37:14.935Z,6.98
2018-11-01T01:39:49.418Z,6.98
2018-11-01T01:42:28.073Z,6.94
2018-11-01T01:45:02.382Z,6.85
2018-11-01T01:47:37.317Z,6.89
2018-11-01T01:50:13.192Z,6.94
2018-11-01T01:52:48.697Z,6.93
2018-11-01T01:55:23.711Z,6.89
2018-11-01T01:57:58.465Z,6.87
2018-11-01T02:00:33.537Z,6.88
2018-11-01T02:03:08.180Z,6.87
2018-11-01T02:05:42.809Z,6.82
2018-11-01T02:08:17.497Z,6.75
2018-11-01T02:10:52.365Z,6.69
2018-11-01T02:13:26.712Z,6.68
2018-11-01T02:16:01.416Z,6.76
2018-11-01T02:18:35.977Z,6.77
2018-11-01T02:21:10.788Z,6.76
2018-11-01T02:23:45.548Z,6.75
2018-11-01T02:26:20.200Z,6.71
2018-11-01T02:28:55.484Z,6.75
2018-11-01T02:31:30.585Z,6.80
2018-11-01T02:34:05.741Z,6.86
2018-11-01T02:36:40.777Z,6.87
2018-11-01T02:39:15.408Z,6.84
2018-11-01T02:41:50.260Z,6.81
2018-11-01T02:44:24.636Z,6.78
2018-11-01T02:46:59.485Z,6.76
2018-11-01T02:49:33.920Z,6.71
2018-11-01T02:52:08.188Z,6.68
2018-11-01T02:54:43.045Z,6.65
2018-11-01T02:57:17.565Z,6.61
2018-11-01T02:59:52.862Z,6.57
2018-11-01T03:02:27.632Z,6.50
2018-11-01T03:05:02.288Z,6.50
2018-11-01T03:07:36.600Z,6.47
2018-11-01T03:10:12.978Z,6.41
2018-11-01T03:12:47.756Z,6.35
2018-11-01T03:15:22.204Z,6.36
2018-11-01T03:17:56.702Z,6.31
2018-11-01T03:20:31.093Z,6.28
2018-11-01T03:23:05.936Z,6.22
2018-11-01T03:25:40.397Z,6.19
2018-11-01T03:28:15.052Z,6.18
2018-11-01T03:30:49.899Z,6.11
2018-11-01T03:33:25.066Z,6.11
2018-11-01T03:35:59.898Z,6.12
2018-11-01T03:38:34.829Z,6.16
2018-11-01T03:41:09.802Z,6.14
2018-11-01T03:43:44.463Z,6.16
2018-11-01T03:46:19.177Z,6.15
2018-11-01T03:48:54.180Z,6.09
2018-11-01T03:51:29.125Z,6.13
2018-11-01T03:54:03.651Z,6.12
2018-11-01T03:56:38.113Z,6.14
2018-11-01T03:59:12.419Z,6.14
2018-11-01T04:01:46.864Z,6.18
2018-11-01T04:04:21.270Z,6.17
2018-11-01T04:06:56.108Z,6.16
2018-11-01T04:09:30.403Z,6.23
2018-11-01T04:12:05.860Z,6.25
2018-11-01T04:14:40.764Z,6.31
2018-11-01T04:17:15.117Z,6.27
2018-11-01T04:19:50.057Z,6.27
2018-11-01T04:22:24.375Z,6.29
2018-11-01T04:24:58.693Z,6.32
2018-11-01T04:27:33.711Z,6.35
2018-11-01T04:30:08.365Z,6.28
2018-11-01T04:32:43.344Z,6.22
2018-11-01T04:35:17.761Z,6.23
2018-11-01T04:37:52.476Z,6.21
2018-11-01T04:40:26.935Z,6.22
2018-11-01T04:43:01.561Z,6.18
2018-11-01T04:45:36.676Z,6.15
2018-11-01T04:48:10.972Z,6.12
2018-11-01T04:50:45.272Z,6.14
2018-11-01T04:53:19.934Z,6.19
2018-11-01T04:55:54.336Z,6.19
2018-11-01T04:58:28.740Z,6.19
2018-11-01T05:01:03.706Z,6.21
2018-11-01T05:03:38.302Z,6.19
2018-11-01T05:06:12.900Z,6.15
2018-11-01T05:08:47.217Z,6.15
2018-11-01T05:11:21.670Z,6.17
2018-11-01T05:13:56.044Z,6.12
2018-11-01T05:16:30.872Z,6.08
2018-11-01T05:19:05.977Z,6.03
2018-11-01T05:21:40.893Z,6.02
2018-11-01T05:24:15.434Z,5.99
2018-11-01T05:26:50.521Z,5.92
2018-11-01T05:29:25.144Z,5.89
2018-11-01T05:31:59.770Z,5.88
2018-11-01T05:34:34.240Z,5.84
2018-11-01T05:37:09.193Z,5.79
2018-11-01T05:39:43.655Z,5.81
2018-11-01T05:42:18.096Z,5.86
2018-11-01T05:44:52.456Z,5.82
2018-11-01T05:47:27.116Z,5.85
2018-11-01T05:50:02.192Z,5.90
2018-11-01T05:52:36.828Z,5.92
2018-11-01T05:55:12.079Z,5.96
2018-11-01T05:57:46.732Z,6.08
2018-11-01T06:00:21.096Z,6.19
2018-11-01T06:02:55.836Z,6.37
2018-11-01T06:05:30.448Z,6.63
2018-11-01T06:08:09.937Z,6.87
2018-11-01T06:10:44.502Z,7.01
2018-11-01T06:13:18.956Z,7.06
2018-11-01T06:15:53.875Z,7.07
2018-11-01T06:18:28.364Z,7.06
2018-11-01T06:21:02.824Z,7.07
2018-11-01T06:23:37.330Z,7.06
2018-11-01T06:26:12.148Z,7.07
2018-11-01T06:28:47.381Z,7.20
2018-11-01T06:31:22.160Z,7.43
2018-11-01T06:33:56.641Z,7.51
2018-11-01T06:36:31.373Z,7.59
2018-11-01T06:39:07.605Z,7.62
2018-11-01T06:41:42.117Z,7.65
2018-11-01T06:44:17.538Z,7.68
2018-11-01T06:46:52.323Z,7.79
2018-11-01T06:49:26.960Z,7.84
2018-11-01T06:52:01.255Z,7.88
2018-11-01T06:54:35.892Z,7.89
2018-11-01T06:57:10.796Z,7.90
2018-11-01T06:59:45.250Z,7.89
2018-11-01T07:02:20.117Z,7.85
2018-11-01T07:04:55.748Z,7.80
2018-11-01T07:07:30.364Z,7.71
2018-11-01T07:10:06.320Z,7.87
2018-11-01T07:12:41.184Z,7.96
2018-11-01T07:15:16.920Z,7.95
2018-11-01T07:17:51.325Z,7.91
2018-11-01T07:20:25.945Z,7.91
2018-11-01T07:23:00.244Z,7.95
2018-11-01T07:25:35.448Z,7.94
2018-11-01T07:28:10.356Z,7.98
2018-11-01T07:30:45.377Z,8.08
2018-11-01T07:33:19.747Z,8.17
2018-11-01T07:35:54.408Z,8.27
2018-11-01T07:38:29.431Z,8.40
2018-11-01T07:41:04.886Z,8.58
2018-11-01T07:43:39.414Z,8.66
2018-11-01T07:46:17.414Z,8.74
2018-11-01T07:48:52.201Z,8.78
2018-11-01T07:51:26.590Z,8.82
2018-11-01T07:54:01.037Z,8.82
2018-11-01T07:56:35.816Z,8.94
2018-11-01T07:59:10.622Z,9.01
2018-11-01T08:01:45.422Z,9.09
2018-11-01T08:04:22.894Z,9.11
2018-11-01T08:06:57.315Z,9.25
2018-11-01T08:09:33.083Z,9.31
2018-11-01T08:12:08.310Z,9.35
2018-11-01T08:14:43.228Z,9.54
2018-11-01T08:17:18.342Z,9.62
2018-11-01T08:19:52.967Z,9.66
2018-11-01T08:22:27.611Z,9.76
2018-11-01T08:25:01.976Z,9.80
2018-11-01T08:27:36.809Z,9.82
2018-11-01T08:30:13.263Z,9.83
2018-11-01T08:32:47.781Z,9.90
2018-11-01T08:35:22.600Z,9.96
2018-11-01T08:37:57.325Z,10.01
2018-11-01T08:40:32.121Z,9.91
2018-11-01T08:43:06.768Z,9.84
2018-11-01T08:45:41.737Z,9.87
2018-11-01T08:48:16.071Z,9.86
2018-11-01T08:50:50.520Z,9.89
2018-11-01T08:53:25.037Z,9.84
2018-11-01T08:55:59.575Z,9.89
2018-11-01T08:58:34.988Z,10.00
2018-11-01T09:01:09.543Z,10.10
2018-11-01T09:03:43.909Z,10.14
2018-11-01T09:06:18.796Z,10.24
2018-11-01T09:08:53.252Z,10.29
2018-11-01T09:11:27.694Z,10.38
2018-11-01T09:14:02.125Z,10.36
2018-11-01T09:16:36.861Z,10.34
2018-11-01T09:19:11.370Z,10.29
2018-11-01T09:21:46.159Z,10.28
2018-11-01T09:24:20.768Z,10.37
2018-11-01T09:26:55.498Z,10.42
2018-11-01T09:29:30.101Z,10.51
2018-11-01T09:32:04.724Z,10.51
2018-11-01T09:34:39.634Z,10.54
2018-11-01T09:37:14.578Z,10.54
2018-11-01T09:42:26.363Z,10.47
2018-11-01T09:45:01.084Z,10.51
2018-11-01T09:47:36.091Z,10.57
2018-11-01T09:50:11.163Z,10.65
2018-11-01T09:52:46.712Z,10.74
2018-11-01T09:55:21.232Z,10.84
2018-11-01T09:57:56.553Z,10.83
2018-11-01T10:00:31.552Z,10.87
2018-11-01T10:03:06.745Z,10.91
2018-11-01T10:05:41.153Z,10.88
2018-11-01T10:08:15.782Z,11.02
2018-11-01T10:10:50.197Z,10.90
2018-11-01T10:13:24.542Z,10.85
2018-11-01T10:15:59.349Z,10.87
2018-11-01T10:18:33.884Z,10.81
2018-11-01T10:21:08.974Z,10.79
2018-11-01T10:23:43.746Z,10.63
2018-11-01T10:26:18.106Z,10.38
2018-11-01T10:28:52.437Z,10.40
2018-11-01T10:31:27.242Z,10.51
2018-11-01T10:34:02.075Z,10.68
2018-11-01T10:36:36.624Z,10.80
2018-11-01T10:39:13.208Z,10.94
2018-11-01T10:41:47.511Z,11.26
2018-11-01T10:44:21.873Z,11.43
2018-11-01T10:46:56.219Z,11.58
2018-11-01T10:49:30.690Z,11.67
2018-11-01T10:52:05.281Z,11.79
2018-11-01T10:54:40.045Z,11.96
2018-11-01T10:57:14.886Z,12.13
2018-11-01T10:59:49.992Z,12.31
2018-11-01T11:02:26.806Z,12.42
2018-11-01T11:05:01.261Z,12.45
2018-11-01T11:07:35.841Z,12.54
2018-11-01T11:10:10.313Z,12.59
2018-11-01T11:12:45.539Z,12.68
2018-11-01T11:15:20.227Z,12.75
2018-11-01T11:17:54.707Z,12.72
2018-11-01T11:20:29.286Z,12.78
2018-11-01T11:23:03.999Z,12.88
2018-11-01T11:25:38.402Z,12.94
2018-11-01T11:28:13.513Z,12.95
2018-11-01T11:30:48.103Z,12.97
2018-11-01T11:33:22.646Z,12.93
2018-11-01T11:35:57.646Z,13.06
2018-11-01T11:38:32.284Z,13.10
2018-11-01T11:41:06.789Z,13.25
2018-11-01T11:43:41.308Z,13.31
2018-11-01T11:46:16.110Z,13.39
2018-11-01T11:48:50.606Z,13.39
2018-11-01T11:51:25.007Z,13.40
2018-11-01T11:53:59.735Z,13.45
2018-11-01T11:56:34.180Z,13.45
2018-11-01T11:59:08.608Z,13.45
2018-11-01T12:01:43.021Z,13.51
2018-11-01T12:04:17.662Z,13.52
2018-11-01T12:06:52.512Z,13.53
2018-11-01T12:09:27.000Z,13.29
2018-11-01T12:12:01.661Z,13.28
2018-11-01T12:14:36.121Z,13.19
2018-11-01T12:17:10.935Z,13.26
2018-11-01T12:19:45.590Z,13.33
2018-11-01T12:22:19.966Z,13.30
2018-11-01T12:24:54.532Z,13.37
2018-11-01T12:27:29.190Z,13.50
2018-11-01T12:30:03.934Z,13.64
2018-11-01T12:32:39.498Z,13.78
2018-11-01T12:35:13.934Z,13.89
2018-11-01T12:37:49.389Z,14.00
2018-11-01T12:40:23.843Z,14.12
2018-11-01T12:42:58.293Z,14.15
2018-11-01T12:45:32.782Z,14.10
2018-11-01T12:48:07.859Z,14.05
2018-11-01T12:50:42.259Z,14.12
2018-11-01T12:53:16.731Z,14.17
2018-11-01T12:55:51.052Z,14.13
2018-11-01T12:58:26.096Z,14.12
2018-11-01T13:01:00.885Z,14.03
2018-11-01T13:03:35.449Z,14.02
2018-11-01T13:06:09.928Z,13.87
2018-11-01T13:08:44.323Z,13.81
2018-11-01T13:11:18.990Z,13.86
2018-11-01T13:13:53.408Z,13.91
2018-11-01T13:16:27.755Z,13.86
2018-11-01T13:19:02.093Z,13.88
2018-11-01T13:21:36.944Z,13.84
2018-11-01T13:24:11.843Z,13.73
2018-11-01T13:26:46.355Z,13.74
2018-11-01T13:29:20.951Z,13.85
2018-11-01T13:31:55.844Z,13.94
2018-11-01T13:34:30.594Z,13.93
2018-11-01T13:37:06.010Z,13.93
2018-11-01T13:39:40.566Z,13.89
2018-11-01T13:42:15.949Z,13.91
2018-11-01T13:44:50.375Z,13.94
2018-11-01T13:47:24.899Z,13.99
2018-11-01T13:49:59.658Z,13.98
2018-11-01T13:52:33.994Z,13.99
2018-11-01T13:55:10.068Z,13.97
2018-11-01T13:57:44.632Z,13.93
2018-11-01T14:00:19.720Z,13.94
2018-11-01T14:02:54.493Z,13.94
2018-11-01T14:05:29.018Z,13.94
2018-11-01T14:08:04.341Z,13.98
2018-11-01T14:10:38.793Z,14.01
2018-11-01T14:13:13.346Z,14.05
2018-11-01T14:15:48.215Z,14.12
2018-11-01T14:18:22.750Z,14.27
2018-11-01T14:20:57.404Z,14.37
2018-11-01T14:23:32.268Z,14.26
2018-11-01T14:26:07.365Z,14.35
2018-11-01T14:28:42.147Z,14.49
2018-11-01T14:31:16.697Z,14.69
2018-11-01T14:33:52.365Z,14.87
2018-11-01T14:36:26.772Z,14.99
2018-11-01T14:39:01.417Z,15.02
2018-11-01T14:41:35.921Z,15.00
2018-11-01T14:44:10.528Z,15.15
2018-11-01T14:46:45.331Z,15.32
2018-11-01T14:49:19.841Z,15.58
2018-11-01T14:51:54.615Z,15.74
2018-11-01T14:54:30.334Z,15.94
2018-11-01T14:57:05.251Z,16.09
2018-11-01T14:59:40.584Z,16.10
2018-11-01T15:02:14.027Z,16.05
2018-11-01T15:04:48.390Z,16.07
2018-11-01T15:07:23.545Z,16.07
2018-11-01T15:09:57.912Z,15.94
2018-11-01T15:12:32.337Z,15.86
2018-11-01T15:15:08.106Z,15.66
2018-11-01T15:17:43.687Z,15.46
2018-11-01T15:20:18.360Z,15.26
2018-11-01T15:22:52.684Z,15.06
2018-11-01T15:25:28.030Z,14.80
2018-11-01T15:28:02.508Z,14.52
2018-11-01T15:30:36.835Z,14.24
2018-11-01T15:33:11.471Z,13.92
2018-11-01T15:35:46.752Z,13.74
2018-11-01T15:38:21.195Z,13.58
2018-11-01T15:41:00.068Z,13.38
2018-11-01T15:43:35.045Z,13.27
2018-11-01T15:46:11.113Z,13.08
2018-11-01T15:48:45.756Z,12.88
2018-11-01T15:51:20.829Z,12.67
2018-11-01T15:53:55.960Z,12.47
2018-11-01T15:56:34.159Z,12.32
2018-11-01T15:59:09.195Z,12.20
2018-11-01T16:01:44.236Z,11.96
2018-11-01T16:04:19.281Z,11.77
2018-11-01T16:06:55.141Z,11.55
2018-11-01T16:09:29.695Z,11.34
2018-11-01T16:12:04.757Z,11.15
2018-11-01T16:14:39.436Z,10.99
2018-11-01T16:17:14.319Z,10.88
2018-11-01T16:19:49.395Z,10.69
2018-11-01T16:22:24.052Z,10.54
2018-11-01T16:24:58.829Z,10.41
2018-11-01T16:27:34.217Z,10.33
2018-11-01T16:30:08.926Z,10.22
2018-11-01T16:32:43.681Z,10.10
2018-11-01T16:35:18.554Z,10.01
2018-11-01T16:37:53.221Z,9.88
2018-11-01T16:40:28.833Z,9.84
2018-11-01T16:43:03.182Z,9.74
2018-11-01T16:45:40.589Z,9.62
2018-11-01T16:48:15.357Z,9.56
2018-11-01T16:50:50.494Z,9.44
2018-11-01T16:53:29.924Z,9.36
2018-11-01T16:56:06.799Z,9.32
2018-11-01T16:58:44.738Z,9.29
2018-11-01T17:01:20.569Z,9.22
2018-11-01T17:03:55.140Z,9.17
2018-11-01T17:06:30.141Z,9.11
2018-11-01T17:09:08.000Z,9.06
2018-11-01T17:11:42.796Z,9.01
2018-11-01T17:14:23.323Z,8.92
2018-11-01T17:16:58.321Z,8.87
2018-11-01T17:19:34.353Z,8.80
2018-11-01T17:22:09.593Z,8.74
2018-11-01T17:24:44.060Z,8.66
2018-11-01T17:27:19.300Z,8.63
2018-11-01T17:29:54.398Z,8.59
2018-11-01T17:32:28.951Z,8.60
2018-11-01T17:35:03.699Z,8.61
2018-11-01T17:37:38.549Z,8.52
2018-11-01T17:40:14.102Z,8.44
2018-11-01T17:42:48.957Z,8.37
2018-11-01T17:45:23.723Z,8.35
2018-11-01T17:47:58.388Z,8.27
2018-11-01T17:50:33.476Z,8.30
2018-11-01T17:53:08.300Z,8.24
2018-11-01T17:55:43.460Z,8.22
2018-11-01T17:58:18.197Z,8.23
2018-11-01T18:00:53.734Z,8.24
2018-11-01T18:03:28.295Z,8.22
2018-11-01T18:06:03.499Z,8.17
2018-11-01T18:08:37.913Z,8.05
2018-11-01T18:11:12.481Z,7.98
2018-11-01T18:13:47.739Z,7.96
2018-11-01T18:16:22.852Z,7.88
2018-11-01T18:18:57.482Z,7.80
2018-11-01T18:21:32.483Z,7.80
2018-11-01T18:24:07.529Z,7.76
2018-11-01T18:26:42.860Z,7.70
2018-11-01T18:29:18.276Z,7.70
2018-11-01T18:31:53.362Z,7.68
2018-11-01T18:34:28.285Z,7.62
2018-11-01T18:37:02.976Z,7.56
2018-11-01T18:39:37.381Z,7.50
2018-11-01T18:42:12.178Z,7.44
2018-11-01T18:44:47.176Z,7.41
2018-11-01T18:47:22.578Z,7.39
2018-11-01T18:49:57.094Z,7.30
2018-11-01T18:52:32.436Z,7.28
2018-11-01T18:55:08.581Z,7.23
2018-11-01T18:57:43.562Z,7.13
2018-11-01T19:00:18.871Z,7.05
2018-11-01T19:02:53.660Z,7.13
2018-11-01T19:05:28.358Z,7.07
2018-11-01T19:08:03.310Z,7.10
2018-11-01T19:10:38.064Z,6.98
2018-11-01T19:13:12.477Z,6.94
2018-11-01T19:15:47.596Z,6.95
2018-11-01T19:18:22.695Z,6.95
2018-11-01T19:20:57.829Z,6.84
2018-11-01T19:23:32.319Z,6.85
2018-11-01T19:26:07.061Z,6.77
2018-11-01T19:28:42.096Z,6.74
2018-11-01T19:31:17.599Z,6.75
2018-11-01T19:33:52.140Z,6.68
2018-11-01T19:36:27.271Z,6.69
2018-11-01T19:39:02.005Z,6.62
2018-11-01T19:41:36.673Z,6.63
2018-11-01T19:44:11.632Z,6.56
2018-11-01T19:46:46.891Z,6.54
2018-11-01T19:49:21.437Z,6.53
2018-11-01T19:51:56.105Z,6.50
2018-11-01T19:54:30.688Z,6.53
2018-11-01T19:57:05.946Z,6.44
2018-11-01T19:59:40.420Z,6.41
2018-11-01T20:02:15.106Z,6.40
2018-11-01T20:04:49.786Z,6.37
2018-11-01T20:07:25.944Z,6.29
2018-11-01T20:10:00.404Z,6.23
2018-11-01T20:12:35.180Z,6.20
2018-11-01T20:15:09.864Z,6.17
2018-11-01T20:17:44.508Z,6.19
2018-11-01T20:20:19.204Z,6.22
2018-11-01T20:22:53.730Z,6.13
2018-11-01T20:25:29.210Z,6.11
2018-11-01T20:28:04.200Z,6.10
2018-11-01T20:30:39.481Z,6.07
2018-11-01T20:33:14.273Z,6.05
2018-11-01T20:35:48.960Z,6.08
2018-11-01T20:38:23.589Z,6.02
2018-11-01T20:40:58.243Z,5.93
2018-11-01T20:43:32.892Z,5.91
2018-11-01T20:46:07.392Z,6.10
2018-11-01T20:48:42.086Z,6.17
2018-11-01T20:51:16.782Z,6.18
2018-11-01T20:53:51.620Z,6.21
2018-11-01T20:56:26.272Z,6.12
2018-11-01T20:59:01.071Z,6.12
2018-11-01T21:01:35.770Z,6.12
2018-11-01T21:04:10.334Z,6.08
2018-11-01T21:06:44.966Z,6.05
2018-11-01T21:09:19.418Z,6.05
2018-11-01T21:11:53.934Z,6.05
2018-11-01T21:14:28.451Z,6.01
2018-11-01T21:17:02.912Z,5.97
2018-11-01T21:19:37.995Z,5.99
2018-11-01T21:22:14.442Z,5.91
2018-11-01T21:24:48.756Z,5.83
2018-11-01T21:27:23.700Z,5.79
2018-11-01T21:29:58.507Z,5.84
2018-11-01T21:32:33.611Z,5.86
2018-11-01T21:35:08.894Z,5.84
2018-11-01T21:37:43.830Z,5.80
2018-11-01T21:40:18.950Z,5.89
2018-11-01T21:42:53.863Z,5.95
2018-11-01T21:45:29.166Z,5.96
2018-11-01T21:48:03.945Z,6.04
2018-11-01T21:50:38.832Z,6.14
2018-11-01T21:53:13.518Z,6.15
2018-11-01T21:55:48.293Z,6.13
2018-11-01T21:58:23.347Z,6.15
2018-11-01T22:00:57.831Z,6.18
2018-11-01T22:03:32.391Z,6.16
2018-11-01T22:06:06.912Z,6.16
2018-11-01T22:08:41.616Z,6.16
2018-11-01T22:11:16.318Z,6.17
2018-11-01T22:13:51.092Z,6.16
2018-11-01T22:16:26.234Z,6.18
2018-11-01T22:19:01.483Z,6.17
2018-11-01T22:21:36.433Z,6.18
2018-11-01T22:24:11.125Z,6.14
2018-11-01T22:26:45.399Z,6.19
2018-11-01T22:29:20.237Z,6.17
2018-11-01T22:31:55.194Z,6.15
2018-11-01T22:34:29.902Z,6.13
2018-11-01T22:37:05.264Z,6.09
2018-11-01T22:39:40.308Z,6.05
2018-11-01T22:42:14.928Z,5.99
2018-11-01T22:44:50.230Z,5.93
2018-11-01T22:47:24.565Z,5.89
2018-11-01T22:49:59.648Z,5.92
2018-11-01T22:52:34.644Z,5.93
2018-11-01T22:55:10.644Z,5.91
2018-11-01T22:57:45.808Z,5.88
2018-11-01T23:00:20.925Z,5.94
2018-11-01T23:02:55.777Z,5.86
2018-11-01T23:05:30.678Z,5.86
2018-11-01T23:08:05.533Z,5.83
2018-11-01T23:10:40.963Z,5.80
2018-11-01T23:13:15.710Z,5.77
2018-11-01T23:15:50.753Z,5.79
2018-11-01T23:18:25.676Z,5.80
2018-11-01T23:20:59.991Z,5.80
2018-11-01T23:23:34.856Z,5.88
2018-11-01T23:26:09.558Z,5.84
2018-11-01T23:28:44.882Z,5.81
2018-11-01T23:31:19.185Z,5.85
2018-11-01T23:33:54.540Z,5.86
2018-11-01T23:36:28.437Z,5.92
2018-11-01T23:39:08.475Z,5.92
2018-11-01T23:41:49.174Z,5.93
2018-11-01T23:44:29.260Z,5.94
2018-11-01T23:47:09.704Z,5.88
2018-11-01T23:49:48.741Z,5.92
2018-11-01T23:52:25.850Z,6.02
2018-11-01T23:55:01.357Z,6.06
2018-11-01T23:57:36.148Z,6.09
